createdAt,value
2023-03-04T00:00:10.338Z,8.57
2023-03-04T00:02:38.609Z,8.15
2023-03-04T00:05:07.290Z,8.55
2023-03-04T00:07:35.641Z,8.77
2023-03-04T00:10:05.537Z,8.10
2023-03-04T00:12:33.869Z,9.05
2023-03-04T00:15:02.122Z,8.50
2023-03-04T00:17:31.514Z,8.05
2023-03-04T00:20:00.163Z,7.55
2023-03-04T00:22:28.499Z,9.00
2023-03-04T00:24:56.797Z,8.07
2023-03-04T00:27:26.385Z,8.18
2023-03-04T00:29:54.668Z,8.10
2023-03-04T00:32:23.075Z,8.20
2023-03-04T00:34:51.447Z,7.82
2023-03-04T00:37:19.718Z,8.25
2023-03-04T00:39:47.967Z,8.57
2023-03-04T00:42:16.242Z,8.10
2023-03-04T00:44:45.845Z,9.00
2023-03-04T00:47:14.147Z,8.50
2023-03-04T00:49:42.564Z,8.55
2023-03-04T00:52:11.211Z,8.38
2023-03-04T00:54:39.476Z,8.80
2023-03-04T00:57:07.763Z,9.38
2023-03-04T00:59:36.024Z,8.73
2023-03-04T01:02:05.828Z,7.88
2023-03-04T01:04:34.163Z,8.15
2023-03-04T01:07:02.519Z,8.43
2023-03-04T01:09:30.919Z,8.82
2023-03-04T01:11:59.242Z,8.40
2023-03-04T01:14:27.489Z,8.35
2023-03-04T01:16:55.812Z,9.05
2023-03-04T01:19:25.434Z,8.80
2023-03-04T01:21:53.831Z,8.57
2023-03-04T01:24:23.594Z,8.30
2023-03-04T01:26:51.860Z,8.88
2023-03-04T01:29:20.109Z,9.98
2023-03-04T01:31:48.773Z,9.88
2023-03-04T01:34:17.997Z,7.80
2023-03-04T01:36:47.600Z,9.40
2023-03-04T01:39:15.870Z,8.40
2023-03-04T01:41:44.238Z,9.45
2023-03-04T01:44:12.673Z,9.55
2023-03-04T01:46:42.437Z,10.65
2023-03-04T01:49:11.438Z,10.57
2023-03-04T01:51:39.712Z,10.50
2023-03-04T01:54:10.766Z,9.98
2023-03-04T01:56:40.241Z,11.63
2023-03-04T01:59:09.432Z,11.77
2023-03-04T02:01:38.421Z,11.05
2023-03-04T02:04:07.581Z,11.00
2023-03-04T02:06:36.165Z,12.07
2023-03-04T02:09:05.431Z,11.25
2023-03-04T02:11:35.958Z,11.60
2023-03-04T02:14:04.444Z,11.48
2023-03-04T02:16:32.930Z,11.57
2023-03-04T02:19:02.097Z,11.52
2023-03-04T02:21:30.980Z,12.60
2023-03-04T02:24:05.119Z,13.13
2023-03-04T02:26:35.947Z,12.57
2023-03-04T02:29:05.231Z,12.57
2023-03-04T02:31:35.314Z,13.20
2023-03-04T02:34:04.371Z,12.10
2023-03-04T02:36:33.930Z,12.85
2023-03-04T02:39:03.779Z,12.68
2023-03-04T02:41:32.437Z,13.32
2023-03-04T02:44:02.903Z,12.80
2023-03-04T02:46:31.500Z,12.40
2023-03-04T02:48:59.849Z,15.57
2023-03-04T02:51:29.763Z,14.18
2023-03-04T02:53:58.153Z,14.65
2023-03-04T02:56:26.730Z,11.70
2023-03-04T02:58:55.548Z,10.10
2023-03-04T03:01:29.385Z,10.45
2023-03-04T03:03:58.508Z,9.93
2023-03-04T03:06:26.905Z,9.70
2023-03-04T03:08:56.040Z,8.25
2023-03-04T03:11:26.551Z,10.07
2023-03-04T03:13:56.560Z,9.38
2023-03-04T03:16:26.539Z,10.32
2023-03-04T03:18:55.001Z,9.90
2023-03-04T03:21:23.774Z,9.32
2023-03-04T03:23:52.076Z,9.43
2023-03-04T03:26:20.536Z,9.93
2023-03-04T03:28:49.123Z,8.80
2023-03-04T03:31:17.457Z,10.40
2023-03-04T03:33:49.590Z,9.88
2023-03-04T03:36:17.906Z,10.60
2023-03-04T03:38:46.201Z,10.40
2023-03-04T03:41:14.460Z,10.05
2023-03-04T03:43:42.754Z,10.38
2023-03-04T03:46:11.087Z,9.30
2023-03-04T03:48:39.367Z,9.57
2023-03-04T03:51:09.362Z,9.25
2023-03-04T03:53:37.623Z,10.00
2023-03-04T03:56:06.127Z,9.38
2023-03-04T03:58:34.403Z,10.60
2023-03-04T04:01:02.682Z,9.88
2023-03-04T04:03:30.978Z,10.88
2023-03-04T04:05:59.631Z,9.52
2023-03-04T04:08:29.311Z,10.35
2023-03-04T04:10:57.611Z,11.05
2023-03-04T04:13:25.961Z,9.98
2023-03-04T04:15:54.334Z,10.50
2023-03-04T04:18:23.788Z,11.02
2023-03-04T04:20:53.215Z,9.52
2023-03-04T04:23:21.499Z,11.32
2023-03-04T04:25:51.080Z,13.30
2023-03-04T04:28:19.310Z,11.57
2023-03-04T04:30:48.063Z,11.55
2023-03-04T04:33:16.397Z,11.88
2023-03-04T04:35:44.952Z,12.05
2023-03-04T04:38:13.237Z,11.15
2023-03-04T04:40:42.874Z,12.07
2023-03-04T04:43:12.440Z,11.63
2023-03-04T04:45:40.767Z,11.27
2023-03-04T04:48:09.098Z,11.02
2023-03-04T04:50:37.396Z,11.80
2023-03-04T04:53:05.660Z,11.30
2023-03-04T04:55:35.178Z,12.38
2023-03-04T04:58:03.475Z,12.25
2023-03-04T05:00:33.103Z,11.93
2023-03-04T05:03:01.475Z,11.60
2023-03-04T05:05:29.776Z,11.93
2023-03-04T05:07:58.110Z,11.68
2023-03-04T05:10:26.424Z,13.43
2023-03-04T05:12:54.693Z,12.30
2023-03-04T05:15:22.955Z,11.95
2023-03-04T05:17:52.541Z,12.00
2023-03-04T05:20:20.911Z,12.43
2023-03-04T05:22:49.389Z,11.82
2023-03-04T05:25:17.796Z,12.15
2023-03-04T05:27:48.812Z,11.60
2023-03-04T05:30:17.150Z,12.60
2023-03-04T05:32:45.403Z,12.35
2023-03-04T05:35:16.191Z,12.90
2023-03-04T05:37:44.565Z,13.32
2023-03-04T05:40:13.628Z,12.52
2023-03-04T05:42:41.978Z,12.30
2023-03-04T05:45:10.580Z,12.52
2023-03-04T05:47:38.907Z,13.73
2023-03-04T05:50:07.622Z,13.50
2023-03-04T05:52:37.249Z,14.43
2023-03-04T05:55:05.793Z,12.75
2023-03-04T05:57:34.329Z,13.05
2023-03-04T06:00:05.399Z,13.82
2023-03-04T06:02:44.021Z,13.40
2023-03-04T06:05:13.556Z,13.13
2023-03-04T06:07:44.052Z,13.48
2023-03-04T06:10:13.354Z,13.75
2023-03-04T06:12:41.899Z,13.93
2023-03-04T06:15:11.069Z,13.40
2023-03-04T06:17:42.162Z,14.32
2023-03-04T06:20:11.910Z,13.60
2023-03-04T06:22:40.591Z,13.23
2023-03-04T06:25:10.876Z,13.70
2023-03-04T06:27:39.771Z,13.20
2023-03-04T06:30:09.230Z,14.20
2023-03-04T06:32:37.956Z,14.43
2023-03-04T06:35:06.993Z,13.23
2023-03-04T06:37:35.440Z,13.38
2023-03-04T06:40:03.938Z,13.20
2023-03-04T06:42:33.931Z,13.30
2023-03-04T06:45:02.307Z,13.43
2023-03-04T06:47:31.017Z,13.35
2023-03-04T06:49:59.446Z,14.45
2023-03-04T06:52:27.831Z,13.32
2023-03-04T06:54:57.058Z,15.70
2023-03-04T06:57:25.406Z,13.82
2023-03-04T06:59:55.068Z,14.02
2023-03-04T07:02:24.120Z,14.45
2023-03-04T07:04:52.595Z,15.10
2023-03-04T07:07:21.086Z,14.55
2023-03-04T07:09:49.400Z,13.10
2023-03-04T07:12:35.961Z,14.13
2023-03-04T07:15:06.312Z,13.35
2023-03-04T07:17:35.494Z,13.50
2023-03-04T07:20:04.020Z,15.40
2023-03-04T07:22:32.429Z,15.45
2023-03-04T07:25:00.896Z,13.45
2023-03-04T07:27:29.264Z,13.60
2023-03-04T07:29:58.507Z,14.50
2023-03-04T07:32:29.702Z,12.95
2023-03-04T07:34:59.160Z,13.38
2023-03-04T07:37:27.639Z,13.38
2023-03-04T07:39:56.102Z,14.07
2023-03-04T07:42:24.561Z,12.32
2023-03-04T07:45:01.517Z,14.93
2023-03-04T07:47:31.433Z,13.63
2023-03-04T07:49:59.792Z,14.27
2023-03-04T07:52:28.295Z,13.57
2023-03-04T07:55:00.515Z,14.15
2023-03-04T07:57:29.488Z,14.18
2023-03-04T07:59:57.828Z,13.68
2023-03-04T08:02:28.656Z,14.30
2023-03-04T08:04:58.921Z,13.38
2023-03-04T08:07:27.294Z,14.80
2023-03-04T08:09:55.719Z,14.27
2023-03-04T08:12:28.099Z,13.68
2023-03-04T08:14:56.471Z,13.85
2023-03-04T08:17:24.850Z,13.45
2023-03-04T08:19:53.250Z,13.18
2023-03-04T08:22:23.016Z,13.65
2023-03-04T08:24:51.446Z,13.98
2023-03-04T08:27:19.792Z,12.77
2023-03-04T08:29:48.478Z,13.85
2023-03-04T08:32:16.895Z,13.32
2023-03-04T08:34:45.326Z,14.32
2023-03-04T08:37:13.669Z,13.90
2023-03-04T08:39:43.313Z,14.45
2023-03-04T08:42:11.741Z,14.60
2023-03-04T08:44:40.072Z,13.65
2023-03-04T08:47:10.224Z,13.85
2023-03-04T08:49:38.804Z,14.10
2023-03-04T08:52:07.211Z,14.63
2023-03-04T08:54:35.945Z,13.32
2023-03-04T08:57:07.750Z,13.65
2023-03-04T08:59:38.276Z,13.60
2023-03-04T09:02:06.967Z,12.32
2023-03-04T09:04:35.344Z,15.07
2023-03-04T09:07:03.706Z,13.15
2023-03-04T09:09:32.265Z,13.95
2023-03-04T09:12:02.125Z,13.20
2023-03-04T09:14:32.577Z,13.55
2023-03-04T09:17:01.043Z,12.75
2023-03-04T09:19:34.840Z,13.25
2023-03-04T09:22:03.190Z,13.05
2023-03-04T09:24:31.604Z,14.48
2023-03-04T09:26:59.972Z,14.23
2023-03-04T09:29:30.947Z,13.45
2023-03-04T09:32:00.675Z,13.77
2023-03-04T09:34:29.065Z,13.32
2023-03-04T09:37:00.385Z,13.82
2023-03-04T09:39:37.577Z,13.63
2023-03-04T09:42:10.263Z,12.70
2023-03-04T09:44:41.131Z,11.55
2023-03-04T09:47:14.095Z,12.52
2023-03-04T09:49:43.991Z,11.68
2023-03-04T09:52:28.641Z,11.07
2023-03-04T09:55:01.091Z,11.45
2023-03-04T09:57:32.602Z,12.15
2023-03-04T10:00:08.046Z,11.85
2023-03-04T10:02:49.067Z,11.20
2023-03-04T10:05:20.287Z,12.40
2023-03-04T10:07:51.269Z,9.93
2023-03-04T10:10:23.908Z,10.10
2023-03-04T10:12:52.867Z,10.15
2023-03-04T10:15:24.966Z,11.00
2023-03-04T10:18:01.444Z,10.07
2023-03-04T10:20:35.717Z,10.82
2023-03-04T10:23:10.459Z,11.60
2023-03-04T10:28:40.557Z,11.10
2023-03-04T10:31:16.731Z,11.15
2023-03-04T10:33:46.527Z,10.95
2023-03-04T10:36:45.525Z,10.15
2023-03-04T10:39:15.211Z,10.00
2023-03-04T10:41:44.771Z,11.10
2023-03-04T10:44:17.346Z,10.68
2023-03-04T10:46:49.574Z,10.82
2023-03-04T10:49:20.055Z,9.30
2023-03-04T10:51:52.239Z,10.55
2023-03-04T10:54:28.914Z,9.40
2023-03-04T10:56:58.715Z,9.90
2023-03-04T10:59:35.405Z,10.90
2023-03-04T11:02:12.536Z,10.63
2023-03-04T11:04:42.951Z,10.10
2023-03-04T11:07:11.624Z,10.93
2023-03-04T11:09:40.410Z,9.80
2023-03-04T11:12:13.247Z,10.18
2023-03-04T11:14:44.216Z,9.77
2023-03-04T11:17:22.281Z,11.50
2023-03-04T11:19:57.850Z,10.15
2023-03-04T11:22:27.262Z,9.10
2023-03-04T11:24:57.965Z,9.25
2023-03-04T11:27:29.475Z,8.77
2023-03-04T11:30:00.379Z,9.32
2023-03-04T11:32:34.972Z,9.00
2023-03-04T11:35:09.992Z,8.35
2023-03-04T11:37:41.977Z,8.98
2023-03-04T11:40:14.889Z,8.15
2023-03-04T11:42:45.648Z,8.65
2023-03-04T11:45:28.108Z,8.68
2023-03-04T11:47:59.453Z,8.43
2023-03-04T11:50:38.690Z,7.68
2023-03-04T11:53:28.113Z,5.72
2023-03-04T11:56:05.337Z,4.05
2023-03-04T11:58:48.648Z,4.32
2023-03-04T12:01:19.358Z,4.07
2023-03-04T12:04:04.055Z,4.18
2023-03-04T12:06:37.389Z,3.90
2023-03-04T12:09:17.028Z,3.78
2023-03-04T12:11:52.204Z,3.58
2023-03-04T12:14:27.730Z,3.47
2023-03-04T12:17:03.067Z,3.72
2023-03-04T12:19:35.253Z,3.78
2023-03-04T12:22:29.852Z,3.75
2023-03-04T12:25:09.588Z,3.95
2023-03-04T12:27:42.134Z,3.80
2023-03-04T12:30:21.780Z,3.50
2023-03-04T12:32:54.607Z,3.42
2023-03-04T12:35:33.191Z,3.38
2023-03-04T12:38:22.753Z,3.85
2023-03-04T12:40:57.466Z,2.72
2023-03-04T12:43:35.693Z,2.88
2023-03-04T12:46:12.289Z,3.15
2023-03-04T12:48:42.942Z,3.60
2023-03-04T12:51:19.467Z,3.70
2023-03-04T12:53:51.230Z,3.47
2023-03-04T12:56:25.039Z,3.38
2023-03-04T12:58:53.874Z,3.05
2023-03-04T13:01:28.275Z,3.42
2023-03-04T13:03:59.652Z,3.05
2023-03-04T13:06:37.022Z,3.00
2023-03-04T13:09:11.374Z,2.72
2023-03-04T13:11:52.641Z,2.63
2023-03-04T13:14:25.595Z,3.05
2023-03-04T13:16:54.890Z,3.95
2023-03-04T13:19:41.915Z,4.03
2023-03-04T13:22:25.169Z,3.47
2023-03-04T13:24:53.631Z,3.47
2023-03-04T13:27:40.836Z,3.70
2023-03-04T13:30:33.448Z,3.35
2023-03-04T13:33:24.189Z,3.70
2023-03-04T13:36:03.886Z,4.10
2023-03-04T13:38:37.102Z,5.18
2023-03-04T13:41:14.320Z,4.35
2023-03-04T13:43:43.337Z,4.22
2023-03-04T13:46:30.262Z,3.85
2023-03-04T13:49:05.806Z,4.18
2023-03-04T13:51:37.445Z,4.05
2023-03-04T13:54:13.942Z,3.50
2023-03-04T13:56:42.893Z,3.22
2023-03-04T13:59:29.421Z,3.42
2023-03-04T14:01:59.892Z,3.72
2023-03-04T14:04:34.773Z,2.97
2023-03-04T14:07:05.853Z,3.58
2023-03-04T14:09:34.965Z,3.30
2023-03-04T14:12:05.093Z,3.55
2023-03-04T14:14:38.276Z,3.33
2023-03-04T14:17:08.094Z,3.42
2023-03-04T14:19:39.775Z,3.35
2023-03-04T14:22:22.487Z,3.17
2023-03-04T14:24:57.420Z,2.80
2023-03-04T14:27:27.072Z,2.85
2023-03-04T14:29:58.992Z,3.13
2023-03-04T14:32:27.919Z,3.80
2023-03-04T14:34:57.747Z,3.53
2023-03-04T14:37:30.570Z,3.63
2023-03-04T14:40:00.276Z,3.72
2023-03-04T14:42:33.216Z,3.13
2023-03-04T14:45:17.447Z,4.15
2023-03-04T14:47:48.374Z,4.78
2023-03-04T14:50:18.418Z,3.88
2023-03-04T14:52:51.621Z,4.25
2023-03-04T14:55:24.748Z,3.80
2023-03-04T14:57:58.303Z,3.65
2023-03-04T15:00:31.365Z,5.20
2023-03-04T15:03:00.633Z,6.22
2023-03-04T15:05:29.996Z,5.43
2023-03-04T15:08:04.224Z,4.32
2023-03-04T15:10:33.745Z,4.85
2023-03-04T15:13:05.717Z,4.65
2023-03-04T15:15:39.750Z,4.15
2023-03-04T15:18:23.029Z,4.20
2023-03-04T15:21:14.812Z,4.03
2023-03-04T15:23:45.503Z,3.90
2023-03-04T15:26:14.433Z,4.15
2023-03-04T15:28:43.727Z,4.15
2023-03-04T15:31:17.584Z,4.20
2023-03-04T15:33:46.352Z,4.38
2023-03-04T15:36:16.508Z,5.93
2023-03-04T15:38:48.621Z,4.97
2023-03-04T15:41:20.022Z,3.95
2023-03-04T15:43:48.507Z,3.90
2023-03-04T15:46:20.057Z,3.33
2023-03-04T15:48:48.810Z,3.38
2023-03-04T15:51:18.670Z,3.20
2023-03-04T15:53:49.197Z,3.38
2023-03-04T15:56:22.648Z,2.72
2023-03-04T15:58:56.312Z,3.17
2023-03-04T16:01:25.028Z,3.08
2023-03-04T16:03:54.218Z,3.45
2023-03-04T16:06:23.506Z,3.15
2023-03-04T16:08:53.933Z,3.58
2023-03-04T16:11:24.136Z,3.75
2023-03-04T16:13:52.865Z,3.58
2023-03-04T16:16:21.570Z,2.85
2023-03-04T16:18:50.222Z,3.53
2023-03-04T16:21:20.046Z,3.60
2023-03-04T16:23:50.181Z,4.10
2023-03-04T16:26:23.579Z,3.70
2023-03-04T16:28:56.004Z,3.33
2023-03-04T16:31:24.895Z,4.60
2023-03-04T16:33:53.697Z,4.40
2023-03-04T16:36:23.376Z,3.88
2023-03-04T16:38:59.163Z,3.72
2023-03-04T16:41:34.614Z,4.38
2023-03-04T16:44:03.598Z,4.78
2023-03-04T16:46:33.653Z,4.72
2023-03-04T16:49:04.033Z,4.30
2023-03-04T16:51:36.154Z,4.97
2023-03-04T16:54:06.612Z,4.38
2023-03-04T16:56:36.370Z,4.75
2023-03-04T16:59:04.886Z,5.25
2023-03-04T17:01:36.528Z,5.60
2023-03-04T17:04:05.043Z,6.05
2023-03-04T17:06:38.089Z,5.97
2023-03-04T17:09:06.486Z,5.80
2023-03-04T17:11:36.403Z,5.95
2023-03-04T17:14:06.814Z,5.75
2023-03-04T17:16:35.979Z,5.60
2023-03-04T17:19:04.457Z,6.00
2023-03-04T17:21:32.946Z,6.50
2023-03-04T17:24:03.079Z,6.47
2023-03-04T17:26:32.953Z,6.30
2023-03-04T17:29:20.727Z,6.70
2023-03-04T17:32:02.022Z,5.85
2023-03-04T17:34:35.044Z,7.28
2023-03-04T17:37:06.512Z,8.20
2023-03-04T17:39:34.849Z,6.32
2023-03-04T17:42:03.192Z,6.80
2023-03-04T17:44:33.489Z,8.35
2023-03-04T17:47:01.754Z,7.55
2023-03-04T17:49:30.043Z,7.35
2023-03-04T17:51:58.690Z,9.82
2023-03-04T17:54:27.863Z,7.70
2023-03-04T17:56:56.181Z,6.82
2023-03-04T17:59:24.464Z,7.97
2023-03-04T18:01:56.884Z,8.63
2023-03-04T18:04:25.508Z,9.40
2023-03-04T18:06:53.891Z,6.88
2023-03-04T18:09:24.996Z,10.35
2023-03-04T18:11:53.338Z,6.72
2023-03-04T18:14:21.705Z,6.97
2023-03-04T18:16:50.010Z,7.28
2023-03-04T18:19:19.626Z,7.95
2023-03-04T18:21:47.900Z,7.80
2023-03-04T18:24:16.157Z,6.93
2023-03-04T18:26:44.453Z,7.85
2023-03-04T18:29:12.857Z,7.30
2023-03-04T18:31:41.186Z,7.28
2023-03-04T18:34:09.475Z,7.20
2023-03-04T18:36:39.057Z,7.55
2023-03-04T18:39:07.402Z,7.35
2023-03-04T18:41:35.742Z,8.73
2023-03-04T18:44:04.902Z,7.00
2023-03-04T18:46:36.148Z,15.18
2023-03-04T18:49:05.301Z,7.10
2023-03-04T18:51:33.603Z,7.05
2023-03-04T18:54:03.293Z,9.20
2023-03-04T18:56:37.673Z,7.35
2023-03-04T18:59:06.894Z,7.10
2023-03-04T19:01:37.340Z,12.07
2023-03-04T19:04:07.659Z,7.68
2023-03-04T19:06:36.291Z,7.65
2023-03-04T19:09:06.493Z,8.23
2023-03-04T19:11:35.135Z,7.40
2023-03-04T19:14:03.702Z,11.98
2023-03-04T19:16:32.023Z,8.02
2023-03-04T19:19:00.320Z,7.25
2023-03-04T19:21:28.595Z,9.05
2023-03-04T19:23:56.924Z,7.70
2023-03-04T19:26:26.566Z,9.63
2023-03-04T19:28:54.925Z,7.85
2023-03-04T19:31:23.206Z,7.63
2023-03-04T19:33:51.599Z,8.10
2023-03-04T19:36:19.850Z,8.00
2023-03-04T19:38:48.170Z,13.57
2023-03-04T19:41:17.233Z,10.85
2023-03-04T19:43:46.889Z,9.55
2023-03-04T19:46:15.492Z,9.75
2023-03-04T19:48:44.953Z,18.75
2023-03-04T19:51:16.961Z,17.67
2023-03-04T19:53:45.414Z,13.52
2023-03-04T19:56:14.101Z,17.10
2023-03-04T19:58:42.413Z,18.35
2023-03-04T20:01:21.993Z,9.20
2023-03-04T20:03:50.389Z,14.65
2023-03-04T20:06:18.706Z,9.52
2023-03-04T20:08:46.998Z,10.15
2023-03-04T20:11:15.416Z,9.35
2023-03-04T20:13:43.692Z,9.95
2023-03-04T20:16:12.525Z,12.43
2023-03-04T20:18:42.651Z,9.63
2023-03-04T20:21:11.116Z,9.32
2023-03-04T20:23:39.484Z,10.48
2023-03-04T20:26:07.961Z,10.50
2023-03-04T20:28:50.316Z,9.65
2023-03-04T20:31:21.158Z,9.05
2023-03-04T20:33:51.076Z,14.32
2023-03-04T20:36:20.110Z,10.35
2023-03-04T20:38:49.287Z,10.18
2023-03-04T20:41:17.935Z,8.50
2023-03-04T20:43:46.240Z,8.77
2023-03-04T20:46:28.070Z,8.57
2023-03-04T20:48:59.952Z,8.40
2023-03-04T20:51:28.218Z,9.80
2023-03-04T20:53:56.513Z,9.75
2023-03-04T20:56:25.109Z,8.50
2023-03-04T20:58:54.238Z,8.55
2023-03-04T21:01:22.884Z,9.95
2023-03-04T21:03:51.970Z,9.48
2023-03-04T21:06:21.736Z,9.45
2023-03-04T21:08:50.055Z,14.38
2023-03-04T21:11:19.060Z,10.52
2023-03-04T21:13:53.840Z,15.80
2023-03-04T21:16:22.144Z,9.20
2023-03-04T21:18:50.552Z,13.13
2023-03-04T21:21:21.976Z,8.48
2023-03-04T21:23:52.079Z,8.57
2023-03-04T21:26:21.997Z,10.65
2023-03-04T21:28:50.854Z,8.57
2023-03-04T21:31:20.286Z,9.13
2023-03-04T21:33:48.762Z,8.60
2023-03-04T21:36:17.229Z,8.48
2023-03-04T21:38:46.362Z,8.50
2023-03-04T21:41:16.016Z,10.10
2023-03-04T21:43:44.380Z,9.00
2023-03-04T21:46:14.673Z,8.50
2023-03-04T21:48:44.773Z,8.70
2023-03-04T21:51:14.163Z,10.38
2023-03-04T21:53:43.294Z,9.38
2023-03-04T21:56:12.456Z,10.27
2023-03-04T21:58:42.450Z,10.57
2023-03-04T22:01:12.293Z,9.23
2023-03-04T22:03:41.180Z,9.85
2023-03-04T22:06:11.163Z,10.23
2023-03-04T22:08:40.097Z,9.13
2023-03-04T22:11:09.482Z,10.15
2023-03-04T22:13:38.309Z,10.68
2023-03-04T22:16:08.492Z,9.32
2023-03-04T22:18:39.788Z,9.43
2023-03-04T22:21:09.168Z,10.18
2023-03-04T22:23:37.787Z,9.88
2023-03-04T22:26:06.688Z,10.15
2023-03-04T22:28:35.171Z,10.45
2023-03-04T22:31:03.801Z,9.52
2023-03-04T22:33:37.118Z,9.75
2023-03-04T22:36:06.693Z,8.68
2023-03-04T22:38:35.019Z,9.10
2023-03-04T22:41:03.614Z,10.73
2023-03-04T22:43:31.916Z,9.90
2023-03-04T22:46:01.642Z,9.57
2023-03-04T22:48:29.964Z,9.27
2023-03-04T22:51:06.113Z,9.60
2023-03-04T22:53:34.506Z,9.38
2023-03-04T22:56:02.802Z,9.05
2023-03-04T22:58:31.139Z,8.25
2023-03-04T23:00:59.474Z,9.05
2023-03-04T23:03:27.858Z,9.10
2023-03-04T23:06:03.564Z,8.88
2023-03-04T23:08:31.878Z,8.38
2023-03-04T23:11:00.207Z,8.85
2023-03-04T23:13:29.184Z,9.05
2023-03-04T23:15:57.473Z,8.88
2023-03-04T23:18:25.788Z,8.02
2023-03-04T23:20:54.135Z,8.82
2023-03-04T23:23:23.805Z,8.68
2023-03-04T23:25:52.099Z,8.82
2023-03-04T23:28:20.534Z,9.65
2023-03-04T23:30:49.081Z,8.43
2023-03-04T23:33:17.397Z,8.38
2023-03-04T23:35:45.722Z,7.80
2023-03-04T23:38:14.414Z,8.27
2023-03-04T23:40:47.540Z,8.38
2023-03-04T23:43:16.178Z,8.10
2023-03-04T23:45:44.541Z,8.18
2023-03-04T23:48:13.015Z,7.50
2023-03-04T23:50:41.350Z,7.72
2023-03-04T23:53:09.871Z,7.90
2023-03-04T23:55:38.412Z,8.00
2023-03-04T23:58:08.184Z,7.60
